sensor_id;sensor_type;location;lat;lon;timestamp;P1;durP1;ratioP1;P2;durP2;ratioP2
16737;SDS011;17906;47.684;10.806;2023-04-23T00:01:56;3.60;;;2.20;;
16737;SDS011;17906;47.684;10.806;2023-04-23T00:04:24;3.60;;;2.07;;
16737;SDS011;17906;47.684;10.806;2023-04-23T00:06:52;2.73;;;2.20;;
16737;SDS011;17906;47.684;10.806;2023-04-23T00:09:20;3.97;;;2.20;;
16737;SDS011;17906;47.684;10.806;2023-04-23T00:11:49;5.03;;;2.23;;
16737;SDS011;17906;47.684;10.806;2023-04-23T00:14:16;6.17;;;2.17;;
16737;SDS011;17906;47.684;10.806;2023-04-23T00:16:44;3.40;;;2.10;;
16737;SDS011;17906;47.684;10.806;2023-04-23T00:19:11;3.60;;;2.10;;
16737;SDS011;17906;47.684;10.806;2023-04-23T00:21:38;3.93;;;2.30;;
16737;SDS011;17906;47.684;10.806;2023-04-23T00:24:05;7.17;;;3.00;;
16737;SDS011;17906;47.684;10.806;2023-04-23T00:26:32;3.90;;;2.10;;
16737;SDS011;17906;47.684;10.806;2023-04-23T00:29:00;3.53;;;2.20;;
16737;SDS011;17906;47.684;10.806;2023-04-23T00:31:27;4.00;;;2.50;;
16737;SDS011;17906;47.684;10.806;2023-04-23T00:33:54;4.03;;;2.40;;
16737;SDS011;17906;47.684;10.806;2023-04-23T00:36:20;4.37;;;2.10;;
16737;SDS011;17906;47.684;10.806;2023-04-23T00:38:47;3.50;;;2.13;;
16737;SDS011;17906;47.684;10.806;2023-04-23T00:41:14;2.60;;;2.00;;
16737;SDS011;17906;47.684;10.806;2023-04-23T00:43:40;2.90;;;1.90;;
16737;SDS011;17906;47.684;10.806;2023-04-23T00:46:08;3.70;;;2.03;;
16737;SDS011;17906;47.684;10.806;2023-04-23T00:48:35;4.10;;;1.80;;
16737;SDS011;17906;47.684;10.806;2023-04-23T00:51:02;6.00;;;2.10;;
16737;SDS011;17906;47.684;10.806;2023-04-23T00:53:31;3.07;;;2.03;;
16737;SDS011;17906;47.684;10.806;2023-04-23T00:55:57;3.70;;;2.37;;
16737;SDS011;17906;47.684;10.806;2023-04-23T00:58:26;3.43;;;2.00;;
16737;SDS011;17906;47.684;10.806;2023-04-23T01:00:53;5.83;;;2.20;;
16737;SDS011;17906;47.684;10.806;2023-04-23T01:03:22;6.00;;;1.90;;
16737;SDS011;17906;47.684;10.806;2023-04-23T01:05:50;3.10;;;1.73;;
16737;SDS011;17906;47.684;10.806;2023-04-23T01:08:18;3.77;;;2.10;;
16737;SDS011;17906;47.684;10.806;2023-04-23T01:10:46;2.50;;;1.90;;
16737;SDS011;17906;47.684;10.806;2023-04-23T01:13:13;4.27;;;2.20;;
16737;SDS011;17906;47.684;10.806;2023-04-23T01:15:41;3.17;;;2.00;;
16737;SDS011;17906;47.684;10.806;2023-04-23T01:18:09;2.97;;;2.10;;
16737;SDS011;17906;47.684;10.806;2023-04-23T01:20:38;4.90;;;1.90;;
16737;SDS011;17906;47.684;10.806;2023-04-23T01:23:06;2.87;;;2.17;;
16737;SDS011;17906;47.684;10.806;2023-04-23T01:25:33;3.77;;;2.10;;
16737;SDS011;17906;47.684;10.806;2023-04-23T01:27:59;5.20;;;2.70;;
16737;SDS011;17906;47.684;10.806;2023-04-23T01:30:28;5.10;;;2.87;;
16737;SDS011;17906;47.684;10.806;2023-04-23T01:32:55;6.60;;;3.10;;
16737;SDS011;17906;47.684;10.806;2023-04-23T01:35:23;5.33;;;3.40;;
16737;SDS011;17906;47.684;10.806;2023-04-23T01:37:50;4.83;;;2.97;;
16737;SDS011;17906;47.684;10.806;2023-04-23T01:40:20;3.83;;;2.57;;
16737;SDS011;17906;47.684;10.806;2023-04-23T01:42:47;4.37;;;2.60;;
16737;SDS011;17906;47.684;10.806;2023-04-23T01:45:14;6.57;;;2.90;;
16737;SDS011;17906;47.684;10.806;2023-04-23T01:47:43;5.03;;;3.33;;
16737;SDS011;17906;47.684;10.806;2023-04-23T01:50:10;4.67;;;2.67;;
16737;SDS011;17906;47.684;10.806;2023-04-23T01:52:37;5.03;;;2.90;;
16737;SDS011;17906;47.684;10.806;2023-04-23T01:55:04;8.13;;;2.90;;
16737;SDS011;17906;47.684;10.806;2023-04-23T01:57:32;4.27;;;2.60;;
16737;SDS011;17906;47.684;10.806;2023-04-23T02:00:00;5.37;;;2.60;;
16737;SDS011;17906;47.684;10.806;2023-04-23T02:02:32;4.77;;;2.70;;
16737;SDS011;17906;47.684;10.806;2023-04-23T02:04:58;5.20;;;2.63;;
16737;SDS011;17906;47.684;10.806;2023-04-23T02:07:28;4.97;;;2.67;;
16737;SDS011;17906;47.684;10.806;2023-04-23T02:09:55;4.40;;;2.63;;
16737;SDS011;17906;47.684;10.806;2023-04-23T02:12:22;6.57;;;2.70;;
16737;SDS011;17906;47.684;10.806;2023-04-23T02:14:50;8.10;;;4.33;;
16737;SDS011;17906;47.684;10.806;2023-04-23T02:17:17;5.80;;;3.90;;
16737;SDS011;17906;47.684;10.806;2023-04-23T02:19:45;4.90;;;2.40;;
16737;SDS011;17906;47.684;10.806;2023-04-23T02:22:12;3.27;;;2.00;;
16737;SDS011;17906;47.684;10.806;2023-04-23T02:24:38;4.17;;;2.63;;
16737;SDS011;17906;47.684;10.806;2023-04-23T02:27:05;3.50;;;2.10;;
16737;SDS011;17906;47.684;10.806;2023-04-23T02:29:32;3.27;;;2.50;;
16737;SDS011;17906;47.684;10.806;2023-04-23T02:32:02;3.97;;;2.50;;
16737;SDS011;17906;47.684;10.806;2023-04-23T02:34:29;4.80;;;2.37;;
16737;SDS011;17906;47.684;10.806;2023-04-23T02:36:55;3.40;;;2.13;;
16737;SDS011;17906;47.684;10.806;2023-04-23T02:39:22;5.37;;;2.40;;
16737;SDS011;17906;47.684;10.806;2023-04-23T02:41:48;3.17;;;2.20;;
16737;SDS011;17906;47.684;10.806;2023-04-23T02:44:15;8.57;;;2.83;;
16737;SDS011;17906;47.684;10.806;2023-04-23T02:46:41;5.13;;;2.30;;
16737;SDS011;17906;47.684;10.806;2023-04-23T02:49:09;3.37;;;2.43;;
16737;SDS011;17906;47.684;10.806;2023-04-23T02:51:35;3.63;;;2.13;;
16737;SDS011;17906;47.684;10.806;2023-04-23T02:54:02;4.40;;;2.37;;
16737;SDS011;17906;47.684;10.806;2023-04-23T02:56:30;8.70;;;2.43;;
16737;SDS011;17906;47.684;10.806;2023-04-23T02:58:56;4.43;;;2.20;;
16737;SDS011;17906;47.684;10.806;2023-04-23T03:01:23;4.70;;;2.47;;
16737;SDS011;17906;47.684;10.806;2023-04-23T03:03:50;4.33;;;2.33;;
16737;SDS011;17906;47.684;10.806;2023-04-23T03:06:18;4.70;;;2.70;;
16737;SDS011;17906;47.684;10.806;2023-04-23T03:08:44;6.87;;;2.87;;
16737;SDS011;17906;47.684;10.806;2023-04-23T03:11:11;4.93;;;2.40;;
16737;SDS011;17906;47.684;10.806;2023-04-23T03:13:38;3.90;;;2.50;;
16737;SDS011;17906;47.684;10.806;2023-04-23T03:16:04;3.80;;;2.73;;
16737;SDS011;17906;47.684;10.806;2023-04-23T03:18:31;7.00;;;2.70;;
16737;SDS011;17906;47.684;10.806;2023-04-23T03:20:57;4.00;;;2.60;;
16737;SDS011;17906;47.684;10.806;2023-04-23T03:23:25;6.60;;;3.30;;
16737;SDS011;17906;47.684;10.806;2023-04-23T03:25:52;4.60;;;2.90;;
16737;SDS011;17906;47.684;10.806;2023-04-23T03:28:18;5.30;;;3.13;;
16737;SDS011;17906;47.684;10.806;2023-04-23T03:30:45;5.10;;;3.43;;
16737;SDS011;17906;47.684;10.806;2023-04-23T03:33:11;5.90;;;3.47;;
16737;SDS011;17906;47.684;10.806;2023-04-23T03:35:38;5.90;;;3.37;;
16737;SDS011;17906;47.684;10.806;2023-04-23T03:38:04;5.97;;;3.43;;
16737;SDS011;17906;47.684;10.806;2023-04-23T03:40:32;6.70;;;3.10;;
16737;SDS011;17906;47.684;10.806;2023-04-23T03:43:00;7.07;;;3.67;;
16737;SDS011;17906;47.684;10.806;2023-04-23T03:45:26;8.13;;;5.30;;
16737;SDS011;17906;47.684;10.806;2023-04-23T03:47:55;12.60;;;5.03;;
16737;SDS011;17906;47.684;10.806;2023-04-23T03:50:22;7.97;;;4.73;;
16737;SDS011;17906;47.684;10.806;2023-04-23T03:52:48;6.17;;;3.60;;
16737;SDS011;17906;47.684;10.806;2023-04-23T03:55:15;4.83;;;3.30;;
16737;SDS011;17906;47.684;10.806;2023-04-23T03:57:43;5.13;;;3.20;;
16737;SDS011;17906;47.684;10.806;2023-04-23T04:00:10;6.17;;;3.20;;
16737;SDS011;17906;47.684;10.806;2023-04-23T04:02:37;4.83;;;3.20;;
16737;SDS011;17906;47.684;10.806;2023-04-23T04:05:03;6.67;;;3.40;;
16737;SDS011;17906;47.684;10.806;2023-04-23T04:07:31;4.43;;;3.10;;
16737;SDS011;17906;47.684;10.806;2023-04-23T04:09:57;5.33;;;3.30;;
16737;SDS011;17906;47.684;10.806;2023-04-23T04:12:27;4.63;;;2.70;;
16737;SDS011;17906;47.684;10.806;2023-04-23T04:14:55;5.93;;;3.03;;
16737;SDS011;17906;47.684;10.806;2023-04-23T04:17:21;4.93;;;3.33;;
16737;SDS011;17906;47.684;10.806;2023-04-23T04:19:48;11.43;;;3.87;;
16737;SDS011;17906;47.684;10.806;2023-04-23T04:22:14;5.57;;;3.80;;
16737;SDS011;17906;47.684;10.806;2023-04-23T04:24:41;6.70;;;4.67;;
16737;SDS011;17906;47.684;10.806;2023-04-23T04:27:08;7.83;;;4.20;;
16737;SDS011;17906;47.684;10.806;2023-04-23T04:29:35;11.13;;;4.40;;
16737;SDS011;17906;47.684;10.806;2023-04-23T04:32:06;8.47;;;3.77;;
16737;SDS011;17906;47.684;10.806;2023-04-23T04:34:33;6.80;;;3.97;;
16737;SDS011;17906;47.684;10.806;2023-04-23T04:37:00;6.33;;;3.90;;
16737;SDS011;17906;47.684;10.806;2023-04-23T04:39:26;6.10;;;3.60;;
16737;SDS011;17906;47.684;10.806;2023-04-23T04:41:53;7.03;;;4.10;;
16737;SDS011;17906;47.684;10.806;2023-04-23T04:44:21;6.37;;;4.10;;
16737;SDS011;17906;47.684;10.806;2023-04-23T04:46:48;7.73;;;4.00;;
16737;SDS011;17906;47.684;10.806;2023-04-23T04:49:15;8.00;;;4.17;;
16737;SDS011;17906;47.684;10.806;2023-04-23T04:51:43;8.47;;;4.70;;
16737;SDS011;17906;47.684;10.806;2023-04-23T04:54:10;6.07;;;4.23;;
16737;SDS011;17906;47.684;10.806;2023-04-23T04:56:36;6.40;;;4.10;;
16737;SDS011;17906;47.684;10.806;2023-04-23T04:59:03;7.20;;;4.30;;
16737;SDS011;17906;47.684;10.806;2023-04-23T05:01:29;8.87;;;4.70;;
16737;SDS011;17906;47.684;10.806;2023-04-23T05:03:57;6.20;;;4.33;;
16737;SDS011;17906;47.684;10.806;2023-04-23T05:06:25;5.93;;;3.80;;
16737;SDS011;17906;47.684;10.806;2023-04-23T05:08:53;9.33;;;3.97;;
16737;SDS011;17906;47.684;10.806;2023-04-23T05:11:19;7.43;;;4.07;;
16737;SDS011;17906;47.684;10.806;2023-04-23T05:13:46;6.13;;;3.67;;
16737;SDS011;17906;47.684;10.806;2023-04-23T05:16:14;6.93;;;3.97;;
16737;SDS011;17906;47.684;10.806;2023-04-23T05:18:40;6.00;;;3.70;;
16737;SDS011;17906;47.684;10.806;2023-04-23T05:21:07;7.53;;;3.50;;
16737;SDS011;17906;47.684;10.806;2023-04-23T05:23:36;6.50;;;3.80;;
16737;SDS011;17906;47.684;10.806;2023-04-23T05:26:02;6.50;;;4.00;;
16737;SDS011;17906;47.684;10.806;2023-04-23T05:28:29;5.67;;;3.90;;
16737;SDS011;17906;47.684;10.806;2023-04-23T05:30:56;7.60;;;4.20;;
16737;SDS011;17906;47.684;10.806;2023-04-23T05:33:23;8.17;;;4.90;;
16737;SDS011;17906;47.684;10.806;2023-04-23T05:35:50;6.50;;;4.10;;
16737;SDS011;17906;47.684;10.806;2023-04-23T05:38:17;7.30;;;4.50;;
16737;SDS011;17906;47.684;10.806;2023-04-23T05:40:45;6.93;;;4.07;;
16737;SDS011;17906;47.684;10.806;2023-04-23T05:43:11;9.53;;;4.10;;
16737;SDS011;17906;47.684;10.806;2023-04-23T05:45:38;6.70;;;3.63;;
16737;SDS011;17906;47.684;10.806;2023-04-23T05:48:04;7.87;;;3.83;;
16737;SDS011;17906;47.684;10.806;2023-04-23T05:50:31;7.00;;;4.30;;
16737;SDS011;17906;47.684;10.806;2023-04-23T05:52:58;5.93;;;3.90;;
16737;SDS011;17906;47.684;10.806;2023-04-23T05:55:24;5.20;;;3.40;;
16737;SDS011;17906;47.684;10.806;2023-04-23T05:57:52;5.90;;;3.20;;
16737;SDS011;17906;47.684;10.806;2023-04-23T06:00:19;7.63;;;3.80;;
16737;SDS011;17906;47.684;10.806;2023-04-23T06:02:45;6.90;;;4.00;;
16737;SDS011;17906;47.684;10.806;2023-04-23T06:05:12;5.57;;;3.73;;
16737;SDS011;17906;47.684;10.806;2023-04-23T06:07:39;7.60;;;4.00;;
16737;SDS011;17906;47.684;10.806;2023-04-23T06:10:06;9.17;;;4.80;;
16737;SDS011;17906;47.684;10.806;2023-04-23T06:12:33;7.13;;;4.40;;
16737;SDS011;17906;47.684;10.806;2023-04-23T06:15:04;8.60;;;5.00;;
16737;SDS011;17906;47.684;10.806;2023-04-23T06:17:32;9.13;;;5.87;;
16737;SDS011;17906;47.684;10.806;2023-04-23T06:19:58;10.23;;;5.47;;
16737;SDS011;17906;47.684;10.806;2023-04-23T06:22:25;8.97;;;5.30;;
16737;SDS011;17906;47.684;10.806;2023-04-23T06:24:52;10.73;;;4.30;;
16737;SDS011;17906;47.684;10.806;2023-04-23T06:27:18;8.40;;;5.20;;
16737;SDS011;17906;47.684;10.806;2023-04-23T06:29:45;8.90;;;5.40;;
16737;SDS011;17906;47.684;10.806;2023-04-23T06:32:13;8.00;;;4.20;;
16737;SDS011;17906;47.684;10.806;2023-04-23T06:34:39;6.80;;;3.70;;
16737;SDS011;17906;47.684;10.806;2023-04-23T06:37:06;7.50;;;4.17;;
16737;SDS011;17906;47.684;10.806;2023-04-23T06:39:34;5.27;;;3.33;;
16737;SDS011;17906;47.684;10.806;2023-04-23T06:42:01;7.40;;;3.57;;
16737;SDS011;17906;47.684;10.806;2023-04-23T06:44:27;6.30;;;3.40;;
16737;SDS011;17906;47.684;10.806;2023-04-23T06:46:54;7.27;;;4.90;;
16737;SDS011;17906;47.684;10.806;2023-04-23T06:49:22;6.93;;;4.90;;
16737;SDS011;17906;47.684;10.806;2023-04-23T06:51:48;7.07;;;4.53;;
16737;SDS011;17906;47.684;10.806;2023-04-23T06:54:15;5.80;;;4.07;;
16737;SDS011;17906;47.684;10.806;2023-04-23T06:56:41;8.27;;;3.90;;
16737;SDS011;17906;47.684;10.806;2023-04-23T06:59:08;6.00;;;3.80;;
16737;SDS011;17906;47.684;10.806;2023-04-23T07:01:35;6.30;;;3.90;;
16737;SDS011;17906;47.684;10.806;2023-04-23T07:04:01;5.30;;;3.93;;
16737;SDS011;17906;47.684;10.806;2023-04-23T07:06:29;10.83;;;4.03;;
16737;SDS011;17906;47.684;10.806;2023-04-23T07:08:58;5.53;;;3.57;;
16737;SDS011;17906;47.684;10.806;2023-04-23T07:11:24;7.73;;;4.43;;
16737;SDS011;17906;47.684;10.806;2023-04-23T07:13:51;5.10;;;3.90;;
16737;SDS011;17906;47.684;10.806;2023-04-23T07:16:18;4.50;;;3.40;;
16737;SDS011;17906;47.684;10.806;2023-04-23T07:18:46;5.90;;;3.50;;
16737;SDS011;17906;47.684;10.806;2023-04-23T07:21:13;5.87;;;3.50;;
16737;SDS011;17906;47.684;10.806;2023-04-23T07:23:41;5.33;;;3.50;;
16737;SDS011;17906;47.684;10.806;2023-04-23T07:26:07;4.33;;;3.10;;
16737;SDS011;17906;47.684;10.806;2023-04-23T07:28:34;5.33;;;3.27;;
16737;SDS011;17906;47.684;10.806;2023-04-23T07:31:00;4.43;;;3.20;;
16737;SDS011;17906;47.684;10.806;2023-04-23T07:33:27;5.10;;;3.17;;
16737;SDS011;17906;47.684;10.806;2023-04-23T07:35:54;5.40;;;3.23;;
16737;SDS011;17906;47.684;10.806;2023-04-23T07:38:20;4.73;;;3.10;;
16737;SDS011;17906;47.684;10.806;2023-04-23T07:40:48;5.17;;;3.00;;
16737;SDS011;17906;47.684;10.806;2023-04-23T07:43:15;6.33;;;3.47;;
16737;SDS011;17906;47.684;10.806;2023-04-23T07:45:42;4.93;;;3.57;;
16737;SDS011;17906;47.684;10.806;2023-04-23T07:48:08;4.70;;;3.20;;
16737;SDS011;17906;47.684;10.806;2023-04-23T07:50:35;5.23;;;3.57;;
16737;SDS011;17906;47.684;10.806;2023-04-23T07:53:01;10.77;;;6.80;;
16737;SDS011;17906;47.684;10.806;2023-04-23T07:55:28;6.17;;;4.10;;
16737;SDS011;17906;47.684;10.806;2023-04-23T07:57:56;6.07;;;3.37;;
16737;SDS011;17906;47.684;10.806;2023-04-23T08:00:22;5.20;;;3.53;;
16737;SDS011;17906;47.684;10.806;2023-04-23T08:02:49;6.67;;;3.80;;
16737;SDS011;17906;47.684;10.806;2023-04-23T08:05:16;23.47;;;12.80;;
16737;SDS011;17906;47.684;10.806;2023-04-23T08:07:43;60.63;;;29.03;;
16737;SDS011;17906;47.684;10.806;2023-04-23T08:10:09;31.93;;;14.00;;
16737;SDS011;17906;47.684;10.806;2023-04-23T08:12:36;9.47;;;5.63;;
16737;SDS011;17906;47.684;10.806;2023-04-23T08:15:04;5.10;;;3.50;;
16737;SDS011;17906;47.684;10.806;2023-04-23T08:17:31;3.97;;;2.90;;
16737;SDS011;17906;47.684;10.806;2023-04-23T08:19:58;8.07;;;4.90;;
16737;SDS011;17906;47.684;10.806;2023-04-23T08:22:24;4.07;;;3.20;;
16737;SDS011;17906;47.684;10.806;2023-04-23T08:24:51;5.53;;;3.40;;
16737;SDS011;17906;47.684;10.806;2023-04-23T08:27:17;6.97;;;3.50;;
16737;SDS011;17906;47.684;10.806;2023-04-23T08:29:44;4.07;;;3.00;;
16737;SDS011;17906;47.684;10.806;2023-04-23T08:32:12;7.07;;;3.80;;
16737;SDS011;17906;47.684;10.806;2023-04-23T08:34:39;5.70;;;3.70;;
16737;SDS011;17906;47.684;10.806;2023-04-23T08:37:05;8.83;;;5.47;;
16737;SDS011;17906;47.684;10.806;2023-04-23T08:39:32;6.27;;;3.70;;
16737;SDS011;17906;47.684;10.806;2023-04-23T08:42:01;5.97;;;3.70;;
16737;SDS011;17906;47.684;10.806;2023-04-23T08:44:35;6.20;;;4.07;;
16737;SDS011;17906;47.684;10.806;2023-04-23T08:47:05;4.33;;;3.30;;
16737;SDS011;17906;47.684;10.806;2023-04-23T08:49:36;7.70;;;4.30;;
16737;SDS011;17906;47.684;10.806;2023-04-23T08:52:09;8.13;;;4.10;;
16737;SDS011;17906;47.684;10.806;2023-04-23T08:54:43;5.03;;;3.43;;
16737;SDS011;17906;47.684;10.806;2023-04-23T08:57:13;5.43;;;3.63;;
16737;SDS011;17906;47.684;10.806;2023-04-23T08:59:41;4.57;;;3.23;;
16737;SDS011;17906;47.684;10.806;2023-04-23T09:02:08;5.60;;;3.50;;
16737;SDS011;17906;47.684;10.806;2023-04-23T09:04:36;5.43;;;3.23;;
16737;SDS011;17906;47.684;10.806;2023-04-23T09:07:03;3.73;;;2.80;;
16737;SDS011;17906;47.684;10.806;2023-04-23T09:09:32;10.07;;;4.57;;
16737;SDS011;17906;47.684;10.806;2023-04-23T09:11:59;4.53;;;3.27;;
16737;SDS011;17906;47.684;10.806;2023-04-23T09:14:26;5.13;;;3.40;;
16737;SDS011;17906;47.684;10.806;2023-04-23T09:16:52;8.70;;;4.37;;
16737;SDS011;17906;47.684;10.806;2023-04-23T09:19:19;4.33;;;3.00;;
16737;SDS011;17906;47.684;10.806;2023-04-23T09:21:47;4.17;;;3.07;;
16737;SDS011;17906;47.684;10.806;2023-04-23T09:24:13;3.33;;;2.20;;
16737;SDS011;17906;47.684;10.806;2023-04-23T09:26:45;3.10;;;2.20;;
16737;SDS011;17906;47.684;10.806;2023-04-23T09:29:13;4.10;;;2.05;;
16737;SDS011;17906;47.684;10.806;2023-04-23T09:31:43;4.03;;;2.53;;
16737;SDS011;17906;47.684;10.806;2023-04-23T09:34:09;4.97;;;2.55;;
16737;SDS011;17906;47.684;10.806;2023-04-23T09:36:36;3.42;;;2.30;;
16737;SDS011;17906;47.684;10.806;2023-04-23T09:39:04;4.25;;;2.13;;
16737;SDS011;17906;47.684;10.806;2023-04-23T09:41:37;3.15;;;2.28;;
16737;SDS011;17906;47.684;10.806;2023-04-23T09:44:04;2.53;;;2.10;;
16737;SDS011;17906;47.684;10.806;2023-04-23T09:46:32;5.15;;;2.60;;
16737;SDS011;17906;47.684;10.806;2023-04-23T09:49:02;2.90;;;2.20;;
16737;SDS011;17906;47.684;10.806;2023-04-23T09:51:31;3.75;;;2.35;;
16737;SDS011;17906;47.684;10.806;2023-04-23T09:54:00;2.22;;;1.90;;
16737;SDS011;17906;47.684;10.806;2023-04-23T09:56:29;3.13;;;1.70;;
16737;SDS011;17906;47.684;10.806;2023-04-23T09:58:56;3.70;;;2.22;;
16737;SDS011;17906;47.684;10.806;2023-04-23T10:01:26;3.17;;;2.00;;
16737;SDS011;17906;47.684;10.806;2023-04-23T10:03:54;3.60;;;1.77;;
16737;SDS011;17906;47.684;10.806;2023-04-23T10:06:28;2.90;;;2.38;;
16737;SDS011;17906;47.684;10.806;2023-04-23T10:08:56;3.13;;;2.25;;
16737;SDS011;17906;47.684;10.806;2023-04-23T10:11:23;2.20;;;1.65;;
16737;SDS011;17906;47.684;10.806;2023-04-23T10:13:52;3.25;;;2.28;;
16737;SDS011;17906;47.684;10.806;2023-04-23T10:16:20;3.67;;;1.70;;
16737;SDS011;17906;47.684;10.806;2023-04-23T10:18:47;1.85;;;1.55;;
16737;SDS011;17906;47.684;10.806;2023-04-23T10:21:16;2.80;;;1.63;;
16737;SDS011;17906;47.684;10.806;2023-04-23T10:23:44;1.95;;;1.40;;
16737;SDS011;17906;47.684;10.806;2023-04-23T10:26:13;2.22;;;1.60;;
16737;SDS011;17906;47.684;10.806;2023-04-23T10:28:41;2.78;;;1.52;;
16737;SDS011;17906;47.684;10.806;2023-04-23T10:31:13;1.98;;;1.67;;
16737;SDS011;17906;47.684;10.806;2023-04-23T10:33:40;2.90;;;1.48;;
16737;SDS011;17906;47.684;10.806;2023-04-23T10:36:08;2.20;;;1.50;;
16737;SDS011;17906;47.684;10.806;2023-04-23T10:38:35;3.17;;;1.65;;
16737;SDS011;17906;47.684;10.806;2023-04-23T10:41:02;2.05;;;1.55;;
16737;SDS011;17906;47.684;10.806;2023-04-23T10:43:29;3.85;;;1.83;;
16737;SDS011;17906;47.684;10.806;2023-04-23T10:45:56;2.67;;;1.85;;
16737;SDS011;17906;47.684;10.806;2023-04-23T10:48:24;5.25;;;1.70;;
16737;SDS011;17906;47.684;10.806;2023-04-23T10:50:56;3.63;;;1.55;;
16737;SDS011;17906;47.684;10.806;2023-04-23T10:53:23;2.65;;;1.48;;
16737;SDS011;17906;47.684;10.806;2023-04-23T10:56:00;4.90;;;1.88;;
16737;SDS011;17906;47.684;10.806;2023-04-23T11:01:16;2.35;;;1.48;;
16737;SDS011;17906;47.684;10.806;2023-04-23T11:03:44;1.92;;;1.60;;
16737;SDS011;17906;47.684;10.806;2023-04-23T11:06:12;2.50;;;1.60;;
16737;SDS011;17906;47.684;10.806;2023-04-23T11:08:49;4.78;;;1.70;;
16737;SDS011;17906;47.684;10.806;2023-04-23T11:11:17;2.13;;;1.40;;
16737;SDS011;17906;47.684;10.806;2023-04-23T11:13:50;1.25;;;1.13;;
16737;SDS011;17906;47.684;10.806;2023-04-23T11:16:19;3.88;;;1.40;;
16737;SDS011;17906;47.684;10.806;2023-04-23T11:18:55;3.47;;;1.65;;
16737;SDS011;17906;47.684;10.806;2023-04-23T11:24:20;1.80;;;1.33;;
16737;SDS011;17906;47.684;10.806;2023-04-23T11:26:47;2.22;;;1.58;;
16737;SDS011;17906;47.684;10.806;2023-04-23T11:29:17;1.75;;;1.50;;
16737;SDS011;17906;47.684;10.806;2023-04-23T11:31:46;2.40;;;1.50;;
16737;SDS011;17906;47.684;10.806;2023-04-23T11:34:15;2.97;;;1.85;;
16737;SDS011;17906;47.684;10.806;2023-04-23T11:36:41;1.90;;;1.58;;
16737;SDS011;17906;47.684;10.806;2023-04-23T11:39:08;2.05;;;1.40;;
16737;SDS011;17906;47.684;10.806;2023-04-23T11:41:36;1.98;;;1.60;;
16737;SDS011;17906;47.684;10.806;2023-04-23T11:44:03;3.22;;;1.55;;
16737;SDS011;17906;47.684;10.806;2023-04-23T11:46:30;3.55;;;1.80;;
16737;SDS011;17906;47.684;10.806;2023-04-23T11:48:58;2.70;;;1.95;;
16737;SDS011;17906;47.684;10.806;2023-04-23T11:51:26;4.75;;;1.75;;
16737;SDS011;17906;47.684;10.806;2023-04-23T11:53:53;3.63;;;1.67;;
16737;SDS011;17906;47.684;10.806;2023-04-23T11:56:20;2.08;;;1.60;;
16737;SDS011;17906;47.684;10.806;2023-04-23T11:58:55;3.45;;;2.05;;
16737;SDS011;17906;47.684;10.806;2023-04-23T12:01:25;2.55;;;1.83;;
16737;SDS011;17906;47.684;10.806;2023-04-23T12:03:52;2.58;;;1.90;;
16737;SDS011;17906;47.684;10.806;2023-04-23T12:06:18;2.47;;;1.80;;
16737;SDS011;17906;47.684;10.806;2023-04-23T12:08:46;3.15;;;1.60;;
16737;SDS011;17906;47.684;10.806;2023-04-23T12:11:13;5.32;;;1.88;;
16737;SDS011;17906;47.684;10.806;2023-04-23T12:13:40;2.50;;;1.80;;
16737;SDS011;17906;47.684;10.806;2023-04-23T12:16:07;2.80;;;2.10;;
16737;SDS011;17906;47.684;10.806;2023-04-23T12:18:34;2.90;;;1.88;;
16737;SDS011;17906;47.684;10.806;2023-04-23T12:21:06;4.03;;;1.90;;
16737;SDS011;17906;47.684;10.806;2023-04-23T12:23:34;2.70;;;2.00;;
16737;SDS011;17906;47.684;10.806;2023-04-23T12:26:03;3.08;;;1.88;;
16737;SDS011;17906;47.684;10.806;2023-04-23T12:28:44;3.95;;;2.13;;
16737;SDS011;17906;47.684;10.806;2023-04-23T12:31:17;3.65;;;1.98;;
16737;SDS011;17906;47.684;10.806;2023-04-23T12:33:44;2.80;;;1.95;;
16737;SDS011;17906;47.684;10.806;2023-04-23T12:36:13;2.63;;;2.08;;
16737;SDS011;17906;47.684;10.806;2023-04-23T12:38:40;3.97;;;1.80;;
16737;SDS011;17906;47.684;10.806;2023-04-23T12:41:09;3.38;;;2.20;;
16737;SDS011;17906;47.684;10.806;2023-04-23T12:43:35;2.63;;;1.85;;
16737;SDS011;17906;47.684;10.806;2023-04-23T12:46:02;4.30;;;2.60;;
16737;SDS011;17906;47.684;10.806;2023-04-23T12:48:28;2.30;;;1.83;;
16737;SDS011;17906;47.684;10.806;2023-04-23T12:50:55;4.35;;;1.95;;
16737;SDS011;17906;47.684;10.806;2023-04-23T12:53:21;3.45;;;2.60;;
16737;SDS011;17906;47.684;10.806;2023-04-23T12:55:48;4.63;;;3.20;;
16737;SDS011;17906;47.684;10.806;2023-04-23T12:58:16;4.53;;;2.00;;
16737;SDS011;17906;47.684;10.806;2023-04-23T13:00:42;4.10;;;1.90;;
16737;SDS011;17906;47.684;10.806;2023-04-23T13:03:09;2.80;;;2.03;;
16737;SDS011;17906;47.684;10.806;2023-04-23T13:05:37;3.22;;;1.92;;
16737;SDS011;17906;47.684;10.806;2023-04-23T13:08:04;4.10;;;2.08;;
16737;SDS011;17906;47.684;10.806;2023-04-23T13:10:30;2.67;;;1.80;;
16737;SDS011;17906;47.684;10.806;2023-04-23T13:12:58;3.30;;;2.10;;
16737;SDS011;17906;47.684;10.806;2023-04-23T13:15:26;2.17;;;1.83;;
16737;SDS011;17906;47.684;10.806;2023-04-23T13:17:52;2.78;;;2.05;;
16737;SDS011;17906;47.684;10.806;2023-04-23T13:20:19;2.72;;;1.98;;
16737;SDS011;17906;47.684;10.806;2023-04-23T13:22:45;3.28;;;1.85;;
16737;SDS011;17906;47.684;10.806;2023-04-23T13:25:12;4.00;;;1.98;;
16737;SDS011;17906;47.684;10.806;2023-04-23T13:27:39;2.20;;;1.80;;
16737;SDS011;17906;47.684;10.806;2023-04-23T13:30:06;3.55;;;2.10;;
16737;SDS011;17906;47.684;10.806;2023-04-23T13:32:35;2.00;;;1.80;;
16737;SDS011;17906;47.684;10.806;2023-04-23T13:35:01;3.67;;;1.98;;
16737;SDS011;17906;47.684;10.806;2023-04-23T13:37:29;3.45;;;2.20;;
16737;SDS011;17906;47.684;10.806;2023-04-23T13:39:56;2.78;;;2.13;;
16737;SDS011;17906;47.684;10.806;2023-04-23T13:42:22;3.05;;;2.00;;
16737;SDS011;17906;47.684;10.806;2023-04-23T13:44:49;3.33;;;1.95;;
16737;SDS011;17906;47.684;10.806;2023-04-23T13:47:16;1.80;;;1.63;;
16737;SDS011;17906;47.684;10.806;2023-04-23T13:49:44;3.08;;;1.90;;
16737;SDS011;17906;47.684;10.806;2023-04-23T13:52:11;3.38;;;2.00;;
16737;SDS011;17906;47.684;10.806;2023-04-23T13:54:37;2.70;;;2.15;;
16737;SDS011;17906;47.684;10.806;2023-04-23T13:57:04;4.63;;;2.03;;
16737;SDS011;17906;47.684;10.806;2023-04-23T13:59:31;3.63;;;2.00;;
16737;SDS011;17906;47.684;10.806;2023-04-23T14:01:57;3.03;;;2.10;;
16737;SDS011;17906;47.684;10.806;2023-04-23T14:04:24;3.88;;;2.28;;
16737;SDS011;17906;47.684;10.806;2023-04-23T14:06:52;2.20;;;1.80;;
16737;SDS011;17906;47.684;10.806;2023-04-23T14:09:18;4.00;;;1.90;;
16737;SDS011;17906;47.684;10.806;2023-04-23T14:11:46;3.97;;;2.15;;
16737;SDS011;17906;47.684;10.806;2023-04-23T14:14:12;2.67;;;1.67;;
16737;SDS011;17906;47.684;10.806;2023-04-23T14:16:39;4.57;;;2.30;;
16737;SDS011;17906;47.684;10.806;2023-04-23T14:19:05;3.78;;;2.00;;
16737;SDS011;17906;47.684;10.806;2023-04-23T14:21:32;3.03;;;1.90;;
16737;SDS011;17906;47.684;10.806;2023-04-23T14:24:06;2.30;;;2.03;;
16737;SDS011;17906;47.684;10.806;2023-04-23T14:26:34;5.20;;;2.08;;
16737;SDS011;17906;47.684;10.806;2023-04-23T14:29:02;4.70;;;2.08;;
16737;SDS011;17906;47.684;10.806;2023-04-23T14:31:35;3.72;;;2.15;;
16737;SDS011;17906;47.684;10.806;2023-04-23T14:34:02;2.80;;;1.80;;
16737;SDS011;17906;47.684;10.806;2023-04-23T14:36:30;2.42;;;1.63;;
16737;SDS011;17906;47.684;10.806;2023-04-23T14:38:56;3.53;;;1.63;;
16737;SDS011;17906;47.684;10.806;2023-04-23T14:41:30;2.83;;;1.92;;